Donnie Sonier — WDF9285 — position and weather

sailwx.info

Track history (hours):
 
Tides and Currents Weather Stations Pressure Air Temp Water Temp Dewpoint Dewpoint Depression Visibility Wind Speed Wind Dir Waves Ship Positions

Donnie Sonier

Owner: LeBeouf Bros. Towing, LLC, Houma, LA. More information available from US FCC via Universal Licensing System and Coast Guard Vessel Documentation Center.

Last reported at 2014-Dec-12 15:31 UTC. Time now 2014-Dec-21 04:06 UTC.
Position N 29°26' W 094°43'.
Warning: this ship's position is 8 days out of date.

Length 22 m.

Type: Tug. MMSI: 367503580.

Date/timePositionNaut miles runAvg speedWind from/ knotsBaromVisibWave heightAir tempDewpointWater temp
2014-Dec-12 15:31N 29°26' W 094°43'4 3.3
2014-Dec-12 14:15N 29°28' W 094°39'0 0.0
2014-Dec-12 13:27N 29°28' W 094°39'0 0.0
2014-Dec-12 11:31N 29°28' W 094°39'12 1.7
2014-Dec-12 04:10N 29°31' W 094°53'4 6.1
2014-Dec-12 03:33N 29°34' W 094°55'6 6.3
2014-Dec-12 02:33N 29°40' W 094°58'5 5.1
2014-Dec-12 01:33N 29°44' W 095°02'4 4.4
2014-Dec-12 00:33N 29°44' W 095°07'5 4.8
2014-Dec-11 23:33N 29°44' W 095°12'2 1.8
2014-Dec-11 22:33N 29°43' W 095°14'0 0.0
2014-Dec-11 21:33N 29°43' W 095°14'0 0.0
2014-Dec-11 20:33N 29°43' W 095°14'1 1.3
2014-Dec-11 19:33N 29°43' W 095°13'1 1.3
2014-Dec-11 18:33N 29°43' W 095°14'0 0.0
2014-Dec-11 17:33N 29°43' W 095°14'0 0.0
2014-Dec-11 16:33N 29°43' W 095°14'0 0.0
2014-Dec-11 15:33N 29°43' W 095°14'0 0.0
2014-Dec-11 14:33N 29°43' W 095°14'0 0.0
2014-Dec-11 13:33N 29°43' W 095°14'0 0.0
2014-Dec-11 12:33N 29°43' W 095°14'0 0.0
2014-Dec-11 11:33N 29°43' W 095°14'0 0.0
2014-Dec-11 10:33N 29°43' W 095°14'0 0.0
2014-Dec-11 09:33N 29°43' W 095°14'0 0.0
2014-Dec-11 08:33N 29°43' W 095°14'0 0.0
2014-Dec-11 07:33N 29°43' W 095°14'0 0.0
2014-Dec-11 06:33N 29°43' W 095°14'0 0.0
2014-Dec-11 05:33N 29°43' W 095°14'0 0.0
2014-Dec-11 04:33N 29°43' W 095°14'0 0.0
2014-Dec-11 03:33N 29°43' W 095°14'0 0.0
2014-Dec-11 02:33N 29°43' W 095°14'0 0.0
2014-Dec-11 01:33N 29°43' W 095°14'0 0.0
2014-Dec-11 00:33N 29°43' W 095°14'0 0.0
2014-Dec-10 23:33N 29°43' W 095°14'0 0.0
2014-Dec-10 22:33N 29°43' W 095°14'0 0.0
2014-Dec-10 21:33N 29°43' W 095°14'0 0.0
2014-Dec-10 20:33N 29°43' W 095°14'0 0.0
2014-Dec-10 19:33N 29°43' W 095°14'0 0.0
2014-Dec-10 18:33N 29°43' W 095°14'0 0.0
2014-Dec-10 17:33N 29°43' W 095°14'0 0.0
2014-Dec-10 16:33N 29°43' W 095°14'0 0.0
2014-Dec-10 15:33N 29°43' W 095°14'0 0.0
2014-Dec-10 14:33N 29°43' W 095°14'0 0.0
2014-Dec-10 13:33N 29°43' W 095°14'0 0.0
2014-Dec-10 12:33N 29°43' W 095°14'0 0.0
2014-Dec-10 11:33N 29°43' W 095°14'0 0.0
2014-Dec-10 10:33N 29°43' W 095°14'0 0.0
2014-Dec-10 09:33N 29°43' W 095°14'0 0.0
2014-Dec-10 08:33N 29°43' W 095°14'0 0.0
2014-Dec-10 07:33N 29°43' W 095°14'865864.9
2014-Dec-10 06:33N 29°43' W 111°50'865864.2
2014-Dec-10 05:33N 29°43' W 095°14'0 0.0
2014-Dec-10 04:33N 29°43' W 095°14'0 0.0
2014-Dec-10 03:33N 29°43' W 095°14'0 0.0
2014-Dec-10 02:33N 29°43' W 095°14'0 0.0
2014-Dec-10 01:33N 29°43' W 095°14'0 0.0
2014-Dec-10 00:33N 29°43' W 095°14'0 0.0
2014-Dec-09 23:33N 29°43' W 095°14'0 0.0
2014-Dec-09 22:33N 29°43' W 095°14'0 0.0
2014-Dec-09 21:33N 29°43' W 095°14'0 0.0
2014-Dec-09 20:33N 29°43' W 095°14'0 0.5
2014-Dec-09 19:33N 29°43' W 095°14'0 0.4
2014-Dec-09 18:33N 29°43' W 095°14'0 0.0
2014-Dec-09 17:33N 29°43' W 095°14'2 2.3
2014-Dec-09 16:33N 29°44' W 095°12'3 3.4
2014-Dec-09 15:33N 29°44' W 095°08'4 3.6
2014-Dec-09 14:33N 29°46' W 095°05'1 1.3
2014-Dec-09 13:33N 29°47' W 095°04'1 1.1
2014-Dec-09 12:33N 29°46' W 095°05'4 4.1
2014-Dec-09 11:33N 29°43' W 095°01'4 4.1
2014-Dec-09 10:33N 29°40' W 094°59'5 5.1
2014-Dec-09 09:33N 29°35' W 094°56'5 5.2
2014-Dec-09 08:33N 29°31' W 094°53'  
Track history (hours):
 
Tides and Currents Weather Stations Pressure Air Temp Water Temp Dewpoint Dewpoint Depression Visibility Wind Speed Wind Dir Waves Ship Positions

Donnie Sonier

Owner: LeBeouf Bros. Towing, LLC, Houma, LA. More information available from US FCC via Universal Licensing System and Coast Guard Vessel Documentation Center.

Last reported at 2014-Dec-12 15:31 UTC. Time now 2014-Dec-21 04:06 UTC.
Position N 29°26' W 094°43'.
Warning: this ship's position is 8 days out of date.

Length 22 m.

Type: Tug. MMSI: 367503580.

Date/timePositionNaut miles runAvg speedWind from/ knotsBaromVisibWave heightAir tempDewpointWater temp
2014-Dec-12 15:31N 29°26' W 094°43'4 3.3
2014-Dec-12 14:15N 29°28' W 094°39'0 0.0
2014-Dec-12 13:27N 29°28' W 094°39'0 0.0
2014-Dec-12 11:31N 29°28' W 094°39'12 1.7
2014-Dec-12 04:10N 29°31' W 094°53'4 6.1
2014-Dec-12 03:33N 29°34' W 094°55'6 6.3
2014-Dec-12 02:33N 29°40' W 094°58'5 5.1
2014-Dec-12 01:33N 29°44' W 095°02'4 4.4
2014-Dec-12 00:33N 29°44' W 095°07'5 4.8
2014-Dec-11 23:33N 29°44' W 095°12'2 1.8
2014-Dec-11 22:33N 29°43' W 095°14'0 0.0
2014-Dec-11 21:33N 29°43' W 095°14'0 0.0
2014-Dec-11 20:33N 29°43' W 095°14'1 1.3
2014-Dec-11 19:33N 29°43' W 095°13'1 1.3
2014-Dec-11 18:33N 29°43' W 095°14'0 0.0
2014-Dec-11 17:33N 29°43' W 095°14'0 0.0
2014-Dec-11 16:33N 29°43' W 095°14'0 0.0
2014-Dec-11 15:33N 29°43' W 095°14'0 0.0
2014-Dec-11 14:33N 29°43' W 095°14'0 0.0
2014-Dec-11 13:33N 29°43' W 095°14'0 0.0
2014-Dec-11 12:33N 29°43' W 095°14'0 0.0
2014-Dec-11 11:33N 29°43' W 095°14'0 0.0
2014-Dec-11 10:33N 29°43' W 095°14'0 0.0
2014-Dec-11 09:33N 29°43' W 095°14'0 0.0
2014-Dec-11 08:33N 29°43' W 095°14'0 0.0
2014-Dec-11 07:33N 29°43' W 095°14'0 0.0
2014-Dec-11 06:33N 29°43' W 095°14'0 0.0
2014-Dec-11 05:33N 29°43' W 095°14'0 0.0
2014-Dec-11 04:33N 29°43' W 095°14'0 0.0
2014-Dec-11 03:33N 29°43' W 095°14'0 0.0
2014-Dec-11 02:33N 29°43' W 095°14'0 0.0
2014-Dec-11 01:33N 29°43' W 095°14'0 0.0
2014-Dec-11 00:33N 29°43' W 095°14'0 0.0
2014-Dec-10 23:33N 29°43' W 095°14'0 0.0
2014-Dec-10 22:33N 29°43' W 095°14'0 0.0
2014-Dec-10 21:33N 29°43' W 095°14'0 0.0
2014-Dec-10 20:33N 29°43' W 095°14'0 0.0
2014-Dec-10 19:33N 29°43' W 095°14'0 0.0
2014-Dec-10 18:33N 29°43' W 095°14'0 0.0
2014-Dec-10 17:33N 29°43' W 095°14'0 0.0
2014-Dec-10 16:33N 29°43' W 095°14'0 0.0
2014-Dec-10 15:33N 29°43' W 095°14'0 0.0
2014-Dec-10 14:33N 29°43' W 095°14'0 0.0
2014-Dec-10 13:33N 29°43' W 095°14'0 0.0
2014-Dec-10 12:33N 29°43' W 095°14'0 0.0
2014-Dec-10 11:33N 29°43' W 095°14'0 0.0
2014-Dec-10 10:33N 29°43' W 095°14'0 0.0
2014-Dec-10 09:33N 29°43' W 095°14'0 0.0
2014-Dec-10 08:33N 29°43' W 095°14'0 0.0
2014-Dec-10 07:33N 29°43' W 095°14'865864.9
2014-Dec-10 06:33N 29°43' W 111°50'865864.2
2014-Dec-10 05:33N 29°43' W 095°14'0 0.0
2014-Dec-10 04:33N 29°43' W 095°14'0 0.0
2014-Dec-10 03:33N 29°43' W 095°14'0 0.0
2014-Dec-10 02:33N 29°43' W 095°14'0 0.0
2014-Dec-10 01:33N 29°43' W 095°14'0 0.0
2014-Dec-10 00:33N 29°43' W 095°14'0 0.0
2014-Dec-09 23:33N 29°43' W 095°14'0 0.0
2014-Dec-09 22:33N 29°43' W 095°14'0 0.0
2014-Dec-09 21:33N 29°43' W 095°14'0 0.0
2014-Dec-09 20:33N 29°43' W 095°14'0 0.5
2014-Dec-09 19:33N 29°43' W 095°14'0 0.4
2014-Dec-09 18:33N 29°43' W 095°14'0 0.0
2014-Dec-09 17:33N 29°43' W 095°14'2 2.3
2014-Dec-09 16:33N 29°44' W 095°12'3 3.4
2014-Dec-09 15:33N 29°44' W 095°08'4 3.6
2014-Dec-09 14:33N 29°46' W 095°05'1 1.3
2014-Dec-09 13:33N 29°47' W 095°04'1 1.1
2014-Dec-09 12:33N 29°46' W 095°05'4 4.1
2014-Dec-09 11:33N 29°43' W 095°01'4 4.1
2014-Dec-09 10:33N 29°40' W 094°59'5 5.1
2014-Dec-09 09:33N 29°35' W 094°56'5 5.2
2014-Dec-09 08:33N 29°31' W 094°53'  

Dump ship's entire track history